Terminal Aerodrome Forecast
Issued by NWS

Home | Current Version | Previous Version | Graphics & Text | Print | Product List | Glossary On
Versions: 1 2 3 4 5 6 7 8 9 10 11 12 13 14
000
FTUS43 KMPX 240520
TAFRNH
TAF
KRNH 240520Z 2406/2506 21015G24KT P6SM SCT050 OVC090
     FM241000 24014G21KT P6SM -SN SCT025 OVC040
      TEMPO 2411/2414 2SM -SN BKN025
     FM241400 29015G23KT P6SM BKN025 OVC035
     FM241700 31017G26KT P6SM BKN035
     FM250100 31012KT P6SM FEW035 BKN150=

USA.gov is the U.S. government's official web portal to all federal, state and local government web resources and services.